createdAt,value
2023-05-19T00:00:21.455Z,15.76
2023-05-19T00:01:21.618Z,15.77
2023-05-19T00:02:21.830Z,15.74
2023-05-19T00:03:22.072Z,15.74
2023-05-19T00:04:22.121Z,15.76
2023-05-19T00:05:22.309Z,15.73
2023-05-19T00:06:22.495Z,15.73
2023-05-19T00:07:22.678Z,15.71
2023-05-19T00:08:22.830Z,15.74
2023-05-19T00:09:23.004Z,15.71
2023-05-19T00:10:23.183Z,15.68
2023-05-19T00:11:23.369Z,15.73
2023-05-19T00:12:23.540Z,15.70
2023-05-19T00:13:23.696Z,15.70
2023-05-19T00:14:23.904Z,15.71
2023-05-19T00:15:24.065Z,15.66
2023-05-19T00:16:24.314Z,15.68
2023-05-19T00:17:24.372Z,15.63
2023-05-19T00:18:24.558Z,15.63
2023-05-19T00:19:25.110Z,15.63
2023-05-19T00:20:24.931Z,15.60
2023-05-19T00:21:25.099Z,15.62
2023-05-19T00:22:25.275Z,15.60
2023-05-19T00:23:25.471Z,15.55
2023-05-19T00:24:25.644Z,15.57
2023-05-19T00:25:25.798Z,15.54
2023-05-19T00:26:25.973Z,15.53
2023-05-19T00:27:26.151Z,15.47
2023-05-19T00:28:26.347Z,15.46
2023-05-19T00:29:26.491Z,15.47
2023-05-19T00:30:26.666Z,15.42
2023-05-19T00:31:26.843Z,15.40
2023-05-19T00:32:27.023Z,15.42
2023-05-19T00:33:27.210Z,15.38
2023-05-19T00:34:27.350Z,15.36
2023-05-19T00:35:27.522Z,15.40
2023-05-19T00:36:27.725Z,15.38
2023-05-19T00:37:27.903Z,15.40
2023-05-19T00:38:28.100Z,15.33
2023-05-19T00:39:28.250Z,15.38
2023-05-19T00:40:28.430Z,15.38
2023-05-19T00:41:28.600Z,15.36
2023-05-19T00:42:28.783Z,15.36
2023-05-19T00:43:28.965Z,15.33
2023-05-19T00:44:29.114Z,15.30
2023-05-19T00:45:29.292Z,15.28
2023-05-19T00:46:29.485Z,15.30
2023-05-19T00:47:29.809Z,15.32
2023-05-19T00:48:30.474Z,15.28
2023-05-19T00:49:29.996Z,15.25
2023-05-19T00:50:30.557Z,15.27
2023-05-19T00:51:30.350Z,15.27
2023-05-19T00:52:30.535Z,15.27
2023-05-19T00:53:30.727Z,15.27
2023-05-19T00:54:30.880Z,15.21
2023-05-19T00:55:31.054Z,15.21
2023-05-19T00:56:31.259Z,15.22
2023-05-19T00:57:31.411Z,15.17
2023-05-19T00:58:31.575Z,15.18
2023-05-19T00:59:31.756Z,15.14
2023-05-19T01:00:32.161Z,15.12
2023-05-19T01:01:32.244Z,15.15
2023-05-19T01:02:32.325Z,15.14
2023-05-19T01:03:32.541Z,15.10
2023-05-19T01:04:32.626Z,15.12
2023-05-19T01:05:32.802Z,15.07
2023-05-19T01:06:32.969Z,15.06
2023-05-19T01:07:33.116Z,15.06
2023-05-19T01:08:33.307Z,15.02
2023-05-19T01:09:33.516Z,15.03
2023-05-19T01:10:33.864Z,15.02
2023-05-19T01:11:33.826Z,15.02
2023-05-19T01:12:33.968Z,14.99
2023-05-19T01:13:34.164Z,15.00
2023-05-19T01:14:34.337Z,14.99
2023-05-19T01:15:34.515Z,14.95
2023-05-19T01:16:34.790Z,14.95
2023-05-19T01:17:34.924Z,14.95
2023-05-19T01:18:35.034Z,14.90
2023-05-19T01:19:35.217Z,14.90
2023-05-19T01:20:35.389Z,14.90
2023-05-19T01:21:35.583Z,14.82
2023-05-19T01:22:35.745Z,14.88
2023-05-19T01:23:35.910Z,14.85
2023-05-19T01:24:36.106Z,14.87
2023-05-19T01:25:36.293Z,14.84
2023-05-19T01:26:36.488Z,14.82
2023-05-19T01:27:36.644Z,14.81
2023-05-19T01:28:36.803Z,14.81
2023-05-19T01:29:36.974Z,14.75
2023-05-19T01:30:37.158Z,14.77
2023-05-19T01:31:37.380Z,14.77
2023-05-19T01:32:37.529Z,14.72
2023-05-19T01:33:37.696Z,14.73
2023-05-19T01:34:37.874Z,14.72
2023-05-19T01:35:38.075Z,14.70
2023-05-19T01:36:38.269Z,14.72
2023-05-19T01:37:38.410Z,14.66
2023-05-19T01:38:38.597Z,14.66
2023-05-19T01:39:38.748Z,14.63
2023-05-19T01:40:38.923Z,14.65
2023-05-19T01:41:39.128Z,14.67
2023-05-19T01:42:39.281Z,14.62
2023-05-19T01:43:39.428Z,14.62
2023-05-19T01:44:39.594Z,14.57
2023-05-19T01:45:39.818Z,14.59
2023-05-19T01:46:39.930Z,14.60
2023-05-19T01:47:40.126Z,14.57
2023-05-19T01:48:40.305Z,14.54
2023-05-19T01:49:40.475Z,14.57
2023-05-19T01:50:40.684Z,14.52
2023-05-19T01:51:40.827Z,14.54
2023-05-19T01:52:41.023Z,14.54
2023-05-19T01:53:41.168Z,14.54
2023-05-19T01:54:41.349Z,14.51
2023-05-19T01:55:41.521Z,14.48
2023-05-19T01:56:41.743Z,14.47
2023-05-19T01:57:41.849Z,14.50
2023-05-19T01:58:42.042Z,14.41
2023-05-19T01:59:42.196Z,14.44
2023-05-19T02:00:42.372Z,14.40
2023-05-19T02:01:42.683Z,14.42
2023-05-19T02:02:42.753Z,14.40
2023-05-19T02:03:42.916Z,14.40
2023-05-19T02:04:43.121Z,14.37
2023-05-19T02:05:43.262Z,14.36
2023-05-19T02:06:43.433Z,14.36
2023-05-19T02:07:43.576Z,14.37
2023-05-19T02:08:43.748Z,14.36
2023-05-19T02:09:43.951Z,14.37
2023-05-19T02:10:44.133Z,14.37
2023-05-19T02:11:44.274Z,14.34
2023-05-19T02:12:44.464Z,14.33
2023-05-19T02:13:44.632Z,14.33
2023-05-19T02:14:44.809Z,14.34
2023-05-19T02:15:45.018Z,14.34
2023-05-19T02:16:45.161Z,14.32
2023-05-19T02:17:45.378Z,14.32
2023-05-19T02:18:45.771Z,14.27
2023-05-19T02:19:45.648Z,14.33
2023-05-19T02:20:45.850Z,14.27
2023-05-19T02:21:45.997Z,14.30
2023-05-19T02:22:46.192Z,14.30
2023-05-19T02:23:46.383Z,14.27
2023-05-19T02:24:46.628Z,14.27
2023-05-19T02:25:46.693Z,14.27
2023-05-19T02:26:46.865Z,14.27
2023-05-19T02:27:47.053Z,14.27
2023-05-19T02:28:47.205Z,14.29
2023-05-19T02:29:47.392Z,14.26
2023-05-19T02:30:47.574Z,14.26
2023-05-19T02:31:47.808Z,14.26
2023-05-19T02:32:47.969Z,14.18
2023-05-19T02:33:48.090Z,14.25
2023-05-19T02:34:48.276Z,14.22
2023-05-19T02:35:48.463Z,14.23
2023-05-19T02:36:48.657Z,14.22
2023-05-19T02:37:48.797Z,14.22
2023-05-19T02:38:48.982Z,14.14
2023-05-19T02:39:49.158Z,14.18
2023-05-19T02:40:49.327Z,14.17
2023-05-19T02:41:49.476Z,14.16
2023-05-19T02:42:49.643Z,14.14
2023-05-19T02:43:49.834Z,14.11
2023-05-19T02:44:50.051Z,14.10
2023-05-19T02:45:50.178Z,14.11
2023-05-19T02:46:50.512Z,14.13
2023-05-19T02:47:50.595Z,14.08
2023-05-19T02:48:50.684Z,14.10
2023-05-19T02:49:50.903Z,14.06
2023-05-19T02:50:51.063Z,14.07
2023-05-19T02:51:51.207Z,14.06
2023-05-19T02:52:51.380Z,14.01
2023-05-19T02:53:51.564Z,14.04
2023-05-19T02:54:51.738Z,14.04
2023-05-19T02:55:51.923Z,14.01
2023-05-19T02:56:52.073Z,14.03
2023-05-19T02:57:52.247Z,14.03
2023-05-19T02:58:52.435Z,13.99
2023-05-19T02:59:52.648Z,13.99
2023-05-19T03:00:52.770Z,13.99
2023-05-19T03:01:52.991Z,13.93
2023-05-19T03:02:53.214Z,13.98
2023-05-19T03:03:53.390Z,13.98
2023-05-19T03:04:53.488Z,13.96
2023-05-19T03:05:53.640Z,13.93
2023-05-19T03:06:53.810Z,13.92
2023-05-19T03:07:53.981Z,13.91
2023-05-19T03:08:54.159Z,13.91
2023-05-19T03:09:54.350Z,13.89
2023-05-19T03:10:54.503Z,13.89
2023-05-19T03:11:54.683Z,13.86
2023-05-19T03:12:54.854Z,13.88
2023-05-19T03:13:55.034Z,13.85
2023-05-19T03:14:55.206Z,13.89
2023-05-19T03:15:55.403Z,13.85
2023-05-19T03:16:55.639Z,13.88
2023-05-19T03:17:55.828Z,13.84
2023-05-19T03:18:55.909Z,13.84
2023-05-19T03:19:56.046Z,13.85
2023-05-19T03:20:56.247Z,13.85
2023-05-19T03:21:56.433Z,13.86
2023-05-19T03:22:56.580Z,13.85
2023-05-19T03:23:56.749Z,13.80
2023-05-19T03:24:56.946Z,13.81
2023-05-19T03:25:57.096Z,13.77
2023-05-19T03:26:57.270Z,13.81
2023-05-19T03:27:57.433Z,13.77
2023-05-19T03:28:57.593Z,13.78
2023-05-19T03:29:57.776Z,13.81
2023-05-19T03:30:57.935Z,13.81
2023-05-19T03:31:58.094Z,13.81
2023-05-19T03:32:58.342Z,13.78
2023-05-19T03:33:58.430Z,13.80
2023-05-19T03:34:58.602Z,13.81
2023-05-19T03:35:58.777Z,13.80
2023-05-19T03:36:58.946Z,13.80
2023-05-19T03:37:59.126Z,13.85
2023-05-19T03:38:59.284Z,13.81
2023-05-19T03:39:59.480Z,13.78
2023-05-19T03:40:59.646Z,13.76
2023-05-19T03:41:59.819Z,13.77
2023-05-19T03:42:59.991Z,13.76
2023-05-19T03:44:00.179Z,13.78
2023-05-19T03:45:00.340Z,13.78
2023-05-19T03:46:00.546Z,13.77
2023-05-19T03:47:00.678Z,13.78
2023-05-19T03:48:00.892Z,13.78
2023-05-19T03:49:01.035Z,13.78
2023-05-19T03:50:01.243Z,13.84
2023-05-19T03:51:01.396Z,13.81
2023-05-19T03:52:01.571Z,13.85
2023-05-19T03:53:01.759Z,13.84
2023-05-19T03:54:01.923Z,13.81
2023-05-19T03:55:02.106Z,13.80
2023-05-19T03:56:02.277Z,13.81
2023-05-19T03:57:02.455Z,13.81
2023-05-19T03:58:02.622Z,13.80
2023-05-19T03:59:02.787Z,13.81
2023-05-19T04:00:02.976Z,13.81
2023-05-19T04:01:03.147Z,13.80
2023-05-19T04:02:03.351Z,13.84
2023-05-19T04:03:03.568Z,13.80
2023-05-19T04:04:03.713Z,13.78
2023-05-19T04:05:03.819Z,13.84
2023-05-19T04:06:03.995Z,13.85
2023-05-19T04:07:04.154Z,13.85
2023-05-19T04:08:04.422Z,13.85
2023-05-19T04:09:04.496Z,13.86
2023-05-19T04:10:04.714Z,13.88
2023-05-19T04:11:04.824Z,13.88
2023-05-19T04:12:05.033Z,13.88
2023-05-19T04:13:05.170Z,13.89
2023-05-19T04:14:05.409Z,13.88
2023-05-19T04:15:05.530Z,13.89
2023-05-19T04:16:05.766Z,13.92
2023-05-19T04:17:05.893Z,13.89
2023-05-19T04:18:06.091Z,13.91
2023-05-19T04:19:06.393Z,13.92
2023-05-19T04:20:06.466Z,13.92
2023-05-19T04:21:06.636Z,13.93
2023-05-19T04:22:06.824Z,13.95
2023-05-19T04:23:06.969Z,13.93
2023-05-19T04:24:07.179Z,13.93
2023-05-19T04:25:07.327Z,13.96
2023-05-19T04:26:07.521Z,13.93
2023-05-19T04:27:07.671Z,14.01
2023-05-19T04:28:07.865Z,13.96
2023-05-19T04:29:08.005Z,14.01
2023-05-19T04:30:08.209Z,14.03
2023-05-19T04:31:08.390Z,14.03
2023-05-19T04:32:08.564Z,14.04
2023-05-19T04:33:08.727Z,14.06
2023-05-19T04:34:08.898Z,14.06
2023-05-19T04:35:09.090Z,14.06
2023-05-19T04:36:09.268Z,14.07
2023-05-19T04:37:09.469Z,14.08
2023-05-19T04:38:09.614Z,14.06
2023-05-19T04:39:09.812Z,14.08
2023-05-19T04:40:09.987Z,14.07
2023-05-19T04:41:10.154Z,14.10
2023-05-19T04:42:10.365Z,14.13
2023-05-19T04:43:10.507Z,14.10
2023-05-19T04:44:10.661Z,14.13
2023-05-19T04:45:10.853Z,14.18
2023-05-19T04:46:13.384Z,14.14
2023-05-19T04:47:11.427Z,14.22
2023-05-19T04:48:11.371Z,14.22
2023-05-19T04:49:11.534Z,14.17
2023-05-19T04:50:11.698Z,14.25
2023-05-19T04:51:11.870Z,14.23
2023-05-19T04:52:12.080Z,14.25
2023-05-19T04:53:12.234Z,14.29
2023-05-19T04:54:12.424Z,14.26
2023-05-19T04:55:12.586Z,14.29
2023-05-19T04:56:12.768Z,14.30
2023-05-19T04:57:12.930Z,14.33
2023-05-19T04:58:13.084Z,14.37
2023-05-19T04:59:13.247Z,14.40
2023-05-19T05:00:13.457Z,14.41
2023-05-19T05:01:13.604Z,14.47
2023-05-19T05:02:13.980Z,14.45
2023-05-19T05:03:14.007Z,14.47
2023-05-19T05:04:14.149Z,14.52
2023-05-19T05:05:14.308Z,14.54
2023-05-19T05:06:14.473Z,14.52
2023-05-19T05:07:14.665Z,14.54
2023-05-19T05:08:14.798Z,14.60
2023-05-19T05:09:14.968Z,14.60
2023-05-19T05:10:15.177Z,14.62
2023-05-19T05:11:15.320Z,14.66
2023-05-19T05:12:15.461Z,14.65
2023-05-19T05:13:15.630Z,14.67
2023-05-19T05:14:15.807Z,14.72
2023-05-19T05:15:15.976Z,14.73
2023-05-19T05:16:16.181Z,14.75
2023-05-19T05:17:16.305Z,14.75
2023-05-19T05:18:16.469Z,14.81
2023-05-19T05:19:16.693Z,14.80
2023-05-19T05:20:16.815Z,14.81
2023-05-19T05:21:16.966Z,14.85
2023-05-19T05:22:17.131Z,14.88
2023-05-19T05:23:17.291Z,14.91
2023-05-19T05:24:17.467Z,14.96
2023-05-19T05:25:17.615Z,14.96
2023-05-19T05:26:17.779Z,14.98
2023-05-19T05:27:17.953Z,15.00
2023-05-19T05:28:18.117Z,15.03
2023-05-19T05:29:18.284Z,15.03
2023-05-19T05:30:18.458Z,15.07
2023-05-19T05:31:18.600Z,15.07
2023-05-19T05:32:18.800Z,15.06
2023-05-19T05:33:19.044Z,15.12
2023-05-19T05:34:19.116Z,15.15
2023-05-19T05:35:19.262Z,15.18
2023-05-19T05:36:19.439Z,15.18
2023-05-19T05:37:19.592Z,15.24
2023-05-19T05:38:19.780Z,15.24
2023-05-19T05:39:19.933Z,15.28
2023-05-19T05:40:20.099Z,15.33
2023-05-19T05:41:20.262Z,15.28
2023-05-19T05:42:20.424Z,15.33
2023-05-19T05:43:20.596Z,15.39
2023-05-19T05:44:20.781Z,15.38
2023-05-19T05:45:20.912Z,15.43
2023-05-19T05:46:21.255Z,15.46
2023-05-19T05:47:21.273Z,15.45
2023-05-19T05:48:21.475Z,15.54
2023-05-19T05:49:21.645Z,15.53
2023-05-19T05:50:21.806Z,15.54
2023-05-19T05:51:21.957Z,15.57
2023-05-19T05:52:22.146Z,15.60
2023-05-19T05:53:22.312Z,15.66
2023-05-19T05:54:22.498Z,15.65
2023-05-19T05:55:22.641Z,15.74
2023-05-19T05:56:22.801Z,15.77
2023-05-19T05:57:22.984Z,15.83
2023-05-19T05:58:23.146Z,15.84
2023-05-19T05:59:23.309Z,15.87
2023-05-19T06:00:23.507Z,15.94
2023-05-19T06:01:23.666Z,16.04
2023-05-19T06:02:23.895Z,16.10
2023-05-19T06:03:24.092Z,16.14
2023-05-19T06:04:24.206Z,16.19
2023-05-19T06:05:24.466Z,16.31
2023-05-19T06:06:24.599Z,16.34
2023-05-19T06:07:24.734Z,16.39
2023-05-19T06:08:24.893Z,16.50
2023-05-19T06:09:25.083Z,16.57
2023-05-19T06:10:25.216Z,16.59
2023-05-19T06:11:25.383Z,16.68
2023-05-19T06:12:25.566Z,16.74
2023-05-19T06:13:25.769Z,16.82
2023-05-19T06:14:25.948Z,16.86
2023-05-19T06:15:26.131Z,16.94
2023-05-19T06:16:26.337Z,16.97
2023-05-19T06:17:26.543Z,17.02
2023-05-19T06:18:26.702Z,17.12
2023-05-19T06:19:26.959Z,17.16
2023-05-19T06:20:27.014Z,17.21
2023-05-19T06:21:27.212Z,17.27
2023-05-19T06:22:27.374Z,17.38
2023-05-19T06:23:27.549Z,17.40
2023-05-19T06:24:27.715Z,17.46
2023-05-19T06:25:27.875Z,17.57
2023-05-19T06:26:30.901Z,17.55
2023-05-19T06:27:28.224Z,17.62
2023-05-19T06:28:28.384Z,17.68
2023-05-19T06:29:28.552Z,17.76
2023-05-19T06:30:28.765Z,17.82
2023-05-19T06:31:28.914Z,17.83
2023-05-19T06:32:29.119Z,17.87
2023-05-19T06:33:29.454Z,17.94
2023-05-19T06:34:29.431Z,17.98
2023-05-19T06:35:29.589Z,18.02
2023-05-19T06:36:29.762Z,18.10
2023-05-19T06:37:29.912Z,18.12
2023-05-19T06:38:30.101Z,18.19
2023-05-19T06:39:30.271Z,18.25
2023-05-19T06:40:30.647Z,18.27
2023-05-19T06:41:30.616Z,18.27
2023-05-19T06:42:30.776Z,18.38
2023-05-19T06:43:30.946Z,18.44
2023-05-19T06:44:31.128Z,18.46
2023-05-19T06:45:31.298Z,18.54
2023-05-19T06:46:31.475Z,18.61
2023-05-19T06:47:31.656Z,18.69
2023-05-19T06:48:31.797Z,18.73
2023-05-19T06:49:31.996Z,18.76
2023-05-19T06:50:32.431Z,18.83
2023-05-19T06:51:32.364Z,18.87
2023-05-19T06:52:32.522Z,18.90
2023-05-19T06:53:32.670Z,18.97
2023-05-19T06:54:32.873Z,19.05
2023-05-19T06:55:34.392Z,19.08
2023-05-19T06:56:33.232Z,19.16
2023-05-19T06:57:33.375Z,19.21
2023-05-19T06:58:33.551Z,19.22
2023-05-19T06:59:33.700Z,19.27
2023-05-19T07:00:34.149Z,19.36
2023-05-19T07:01:34.116Z,19.38
2023-05-19T07:02:34.318Z,19.43
2023-05-19T07:03:34.528Z,19.43
2023-05-19T07:04:34.617Z,19.46
2023-05-19T07:05:34.793Z,19.56
2023-05-19T07:06:34.941Z,19.58
2023-05-19T07:07:35.103Z,19.61
2023-05-19T07:08:35.281Z,19.66
2023-05-19T07:09:35.428Z,19.67
2023-05-19T07:10:35.690Z,19.68
2023-05-19T07:11:35.752Z,19.71
2023-05-19T07:12:35.904Z,19.77
2023-05-19T07:13:36.063Z,19.81
2023-05-19T07:14:36.228Z,19.89
2023-05-19T07:15:36.416Z,19.89
2023-05-19T07:16:36.635Z,19.93
2023-05-19T07:17:36.810Z,19.96
2023-05-19T07:18:36.958Z,19.98
2023-05-19T07:19:37.085Z,20.02
2023-05-19T07:20:37.265Z,20.06
2023-05-19T07:21:37.445Z,20.12
2023-05-19T07:22:37.598Z,20.15
2023-05-19T07:23:37.761Z,20.20
2023-05-19T07:24:37.973Z,20.24
2023-05-19T07:25:38.142Z,20.30
2023-05-19T07:26:38.305Z,20.31
2023-05-19T07:27:38.485Z,20.38
2023-05-19T07:28:40.781Z,20.39
2023-05-19T07:29:38.801Z,20.44
2023-05-19T07:30:39.026Z,20.48
2023-05-19T07:31:39.173Z,20.54
2023-05-19T07:32:39.351Z,20.57
2023-05-19T07:33:39.519Z,20.63
2023-05-19T07:34:39.676Z,20.66
2023-05-19T07:35:39.862Z,20.69
2023-05-19T07:36:40.033Z,20.74
2023-05-19T07:37:40.181Z,20.76
2023-05-19T07:38:40.379Z,20.81
2023-05-19T07:39:40.547Z,20.81
2023-05-19T07:40:40.708Z,20.86
2023-05-19T07:41:40.882Z,20.84
2023-05-19T07:42:41.057Z,20.88
2023-05-19T07:43:41.283Z,20.93
2023-05-19T07:44:41.440Z,20.97
2023-05-19T07:45:41.603Z,21.00
2023-05-19T07:46:41.773Z,21.09
2023-05-19T07:47:41.925Z,21.09
2023-05-19T07:48:42.131Z,21.09
2023-05-19T07:49:42.285Z,21.11
2023-05-19T07:50:42.450Z,21.16
2023-05-19T07:51:42.604Z,21.18
2023-05-19T07:52:42.781Z,21.31
2023-05-19T07:53:42.963Z,21.31
2023-05-19T07:54:43.100Z,21.34
2023-05-19T07:55:43.285Z,21.32
2023-05-19T07:56:43.434Z,21.38
2023-05-19T07:57:43.633Z,21.45
2023-05-19T07:58:43.754Z,21.49
2023-05-19T07:59:43.962Z,21.52
2023-05-19T08:00:44.098Z,21.54
2023-05-19T08:01:44.261Z,21.56
2023-05-19T08:02:44.517Z,21.59
2023-05-19T08:03:44.659Z,21.64
2023-05-19T08:04:44.856Z,21.67
2023-05-19T08:05:44.969Z,21.71
2023-05-19T08:06:45.176Z,21.77
2023-05-19T08:07:45.301Z,21.81
2023-05-19T08:08:45.483Z,21.84
2023-05-19T08:09:45.673Z,21.89
2023-05-19T08:10:45.836Z,21.93
2023-05-19T08:11:46.052Z,21.99
2023-05-19T08:12:46.204Z,22.04
2023-05-19T08:13:46.367Z,22.08
2023-05-19T08:14:46.564Z,22.12
2023-05-19T08:15:46.793Z,22.23
2023-05-19T08:16:46.913Z,22.30
2023-05-19T08:17:47.155Z,22.34
2023-05-19T08:18:47.259Z,22.36
2023-05-19T08:19:47.419Z,22.41
2023-05-19T08:20:47.650Z,22.49
2023-05-19T08:21:47.814Z,22.52
2023-05-19T08:22:47.970Z,22.55
2023-05-19T08:23:48.112Z,22.61
2023-05-19T08:24:48.290Z,22.64
2023-05-19T08:25:48.486Z,22.66
2023-05-19T08:26:48.701Z,22.74
2023-05-19T08:27:48.843Z,22.83
2023-05-19T08:28:49.018Z,22.86
2023-05-19T08:29:49.217Z,22.84
2023-05-19T08:30:49.380Z,22.90
2023-05-19T08:31:49.644Z,22.97
2023-05-19T08:32:49.793Z,22.98
2023-05-19T08:33:49.909Z,23.05
2023-05-19T08:34:50.056Z,23.09
2023-05-19T08:35:50.249Z,23.16
2023-05-19T08:36:50.439Z,23.23
2023-05-19T08:37:50.580Z,23.30
2023-05-19T08:38:50.743Z,23.36
2023-05-19T08:39:50.936Z,23.39
2023-05-19T08:40:51.124Z,23.38
2023-05-19T08:41:51.274Z,23.41
2023-05-19T08:42:51.437Z,23.45
2023-05-19T08:43:51.600Z,23.51
2023-05-19T08:44:51.786Z,23.51
2023-05-19T08:45:51.942Z,23.56
2023-05-19T08:46:52.180Z,23.61
2023-05-19T08:47:52.350Z,23.66
2023-05-19T08:48:52.502Z,23.69
2023-05-19T08:49:52.743Z,23.71
2023-05-19T08:50:52.885Z,23.75
2023-05-19T08:51:53.047Z,23.76
2023-05-19T08:52:53.528Z,23.81
2023-05-19T08:53:53.387Z,23.85
2023-05-19T08:54:53.552Z,23.91
2023-05-19T08:55:53.746Z,23.91
2023-05-19T08:56:53.907Z,24.00
2023-05-19T08:57:54.105Z,24.04
2023-05-19T08:58:54.273Z,24.12
2023-05-19T08:59:54.502Z,24.12
2023-05-19T09:00:54.632Z,24.19
2023-05-19T09:01:54.807Z,24.24
2023-05-19T09:03:00.967Z,24.27
2023-05-19T09:03:56.265Z,24.31
2023-05-19T09:04:55.370Z,24.38
2023-05-19T09:05:55.537Z,24.38
2023-05-19T09:06:55.641Z,24.46
2023-05-19T09:07:55.810Z,24.49
2023-05-19T09:08:55.985Z,24.51
2023-05-19T09:09:56.179Z,24.53
2023-05-19T09:10:56.320Z,24.59
2023-05-19T09:11:56.520Z,24.64
2023-05-19T09:12:56.689Z,24.68
2023-05-19T09:13:56.875Z,24.71
2023-05-19T09:14:57.052Z,24.72
2023-05-19T09:15:57.223Z,24.65
2023-05-19T09:16:57.416Z,24.68
2023-05-19T09:17:57.629Z,24.69
2023-05-19T09:18:57.766Z,24.73
2023-05-19T09:19:57.925Z,24.76
2023-05-19T09:20:58.098Z,24.83
2023-05-19T09:21:58.279Z,24.90
2023-05-19T09:22:58.413Z,24.94
2023-05-19T09:23:58.595Z,24.97
2023-05-19T09:24:58.753Z,24.98
2023-05-19T09:25:58.925Z,25.02
2023-05-19T09:27:00.335Z,25.05
2023-05-19T09:27:59.281Z,25.06
2023-05-19T09:28:59.428Z,25.08
2023-05-19T09:29:59.608Z,25.06
2023-05-19T09:30:59.797Z,25.02
2023-05-19T09:32:00.026Z,25.02
2023-05-19T09:33:00.168Z,25.03
2023-05-19T09:34:00.304Z,25.03
2023-05-19T09:35:00.503Z,25.09
2023-05-19T09:36:00.637Z,25.12
2023-05-19T09:37:00.792Z,25.08
2023-05-19T09:38:00.983Z,25.08
2023-05-19T09:39:01.134Z,25.08
2023-05-19T09:40:01.314Z,25.06
2023-05-19T09:41:01.442Z,25.03
2023-05-19T09:42:01.629Z,25.11
2023-05-19T09:43:01.829Z,25.16
2023-05-19T09:44:02.007Z,25.23
2023-05-19T09:45:02.166Z,25.28
2023-05-19T09:46:02.373Z,25.38
2023-05-19T09:47:02.531Z,25.40
2023-05-19T09:48:02.768Z,25.49
2023-05-19T09:49:02.875Z,25.52
2023-05-19T09:50:03.065Z,25.52
2023-05-19T09:51:03.246Z,25.55
2023-05-19T09:52:03.468Z,25.61
2023-05-19T09:53:03.608Z,25.58
2023-05-19T09:54:03.794Z,25.62
2023-05-19T09:55:03.985Z,25.68
2023-05-19T09:56:04.156Z,25.77
2023-05-19T09:57:04.829Z,25.86
2023-05-19T09:58:04.514Z,25.90
2023-05-19T09:59:04.670Z,25.98
2023-05-19T10:00:04.869Z,26.03
2023-05-19T10:01:05.234Z,26.02
2023-05-19T10:02:05.185Z,25.99
2023-05-19T10:03:05.436Z,26.01
2023-05-19T10:04:06.088Z,26.05
2023-05-19T10:05:05.763Z,26.14
2023-05-19T10:06:05.895Z,26.20
2023-05-19T10:07:06.071Z,26.25
2023-05-19T10:08:06.232Z,26.24
2023-05-19T10:09:06.392Z,26.21
2023-05-19T10:10:06.598Z,26.24
2023-05-19T10:11:06.749Z,26.30
2023-05-19T10:12:06.943Z,26.28
2023-05-19T10:13:07.176Z,26.32
2023-05-19T10:14:07.286Z,26.38
2023-05-19T10:15:07.452Z,26.39
2023-05-19T10:16:07.722Z,26.39
2023-05-19T10:17:07.846Z,26.38
2023-05-19T10:18:07.943Z,26.39
2023-05-19T10:19:08.197Z,26.38
2023-05-19T10:20:08.320Z,26.40
2023-05-19T10:21:08.494Z,26.39
2023-05-19T10:22:08.636Z,26.45
2023-05-19T10:23:08.819Z,26.50
2023-05-19T10:24:10.493Z,26.52
2023-05-19T10:25:09.155Z,26.52
2023-05-19T10:26:09.336Z,26.58
2023-05-19T10:27:09.504Z,26.61
2023-05-19T10:28:09.675Z,26.62
2023-05-19T10:29:09.836Z,26.61
2023-05-19T10:30:12.129Z,26.61
2023-05-19T10:31:10.181Z,26.62
2023-05-19T10:32:10.407Z,26.64
2023-05-19T10:33:10.625Z,26.60
2023-05-19T10:34:10.679Z,26.61
2023-05-19T10:35:10.854Z,26.60
2023-05-19T10:36:11.056Z,26.62
2023-05-19T10:37:11.165Z,26.62
2023-05-19T10:38:11.363Z,26.70
2023-05-19T10:39:11.515Z,26.72
2023-05-19T10:40:11.709Z,26.70
2023-05-19T10:41:11.906Z,26.72
2023-05-19T10:42:12.074Z,26.74
2023-05-19T10:43:12.214Z,26.76
2023-05-19T10:44:12.451Z,26.74
2023-05-19T10:45:12.569Z,26.73
2023-05-19T10:46:12.757Z,26.73
2023-05-19T10:47:12.963Z,26.65
2023-05-19T10:48:13.117Z,26.69
2023-05-19T10:49:13.308Z,26.65
2023-05-19T10:50:13.416Z,26.64
2023-05-19T10:51:14.574Z,26.61
2023-05-19T10:52:13.779Z,26.61
2023-05-19T10:53:13.961Z,26.58
2023-05-19T10:54:14.478Z,26.60
2023-05-19T10:55:14.290Z,26.61
2023-05-19T10:56:14.454Z,26.60
2023-05-19T10:57:14.675Z,26.61
2023-05-19T10:58:14.805Z,26.61
2023-05-19T10:59:14.954Z,26.60
2023-05-19T11:00:15.201Z,26.64
2023-05-19T11:01:15.367Z,26.64
2023-05-19T11:02:15.687Z,26.64
2023-05-19T11:03:15.709Z,26.65
2023-05-19T11:04:15.943Z,26.64
2023-05-19T11:05:15.994Z,26.67
2023-05-19T11:06:16.164Z,26.62
2023-05-19T11:07:16.317Z,26.61
2023-05-19T11:08:16.539Z,26.62
2023-05-19T11:09:16.713Z,26.61
2023-05-19T11:10:16.847Z,26.61
2023-05-19T11:11:17.038Z,26.60
2023-05-19T11:12:17.202Z,26.61
2023-05-19T11:13:17.382Z,26.64
2023-05-19T11:14:17.530Z,26.67
2023-05-19T11:15:17.744Z,26.69
2023-05-19T11:16:17.969Z,26.69
2023-05-19T11:17:18.061Z,26.72
2023-05-19T11:18:18.242Z,26.77
2023-05-19T11:19:18.431Z,26.77
2023-05-19T11:20:18.533Z,26.82
2023-05-19T11:21:18.799Z,26.83
2023-05-19T11:22:18.940Z,26.97
2023-05-19T11:23:19.104Z,27.03
2023-05-19T11:24:19.247Z,27.11
2023-05-19T11:25:19.427Z,27.14
2023-05-19T11:26:19.574Z,27.14
2023-05-19T11:27:19.744Z,27.11
2023-05-19T11:28:20.180Z,27.10
2023-05-19T11:29:20.091Z,27.15
2023-05-19T11:30:20.362Z,27.14
2023-05-19T11:31:20.553Z,27.14
2023-05-19T11:32:20.648Z,27.15
2023-05-19T11:33:20.984Z,27.14
2023-05-19T11:34:20.922Z,27.11
2023-05-19T11:35:21.102Z,27.10
2023-05-19T11:36:21.255Z,27.11
2023-05-19T11:37:21.471Z,27.10
2023-05-19T11:38:21.581Z,27.11
2023-05-19T11:39:21.757Z,27.08
2023-05-19T11:40:21.936Z,27.00
2023-05-19T11:41:22.093Z,27.07
2023-05-19T11:42:22.285Z,27.11
2023-05-19T11:43:22.480Z,27.14
2023-05-19T11:44:22.669Z,27.17
2023-05-19T11:45:22.845Z,27.20
2023-05-19T11:46:23.070Z,27.25
2023-05-19T11:47:23.268Z,27.20
2023-05-19T11:48:23.404Z,27.23
2023-05-19T11:49:23.533Z,27.23
2023-05-19T11:50:23.690Z,27.23
2023-05-19T11:51:23.897Z,27.23
2023-05-19T11:52:24.098Z,27.20
2023-05-19T11:53:24.224Z,27.23
2023-05-19T11:54:24.385Z,27.25
2023-05-19T11:55:24.569Z,27.20
2023-05-19T11:56:24.730Z,27.23
2023-05-19T11:57:24.896Z,27.27
2023-05-19T11:58:25.032Z,27.29
2023-05-19T11:59:25.220Z,27.27
2023-05-19T12:00:25.359Z,27.30
2023-05-19T12:01:25.559Z,27.32
2023-05-19T12:02:25.816Z,27.33
2023-05-19T12:03:25.983Z,27.33
2023-05-19T12:04:26.095Z,27.32
2023-05-19T12:05:26.428Z,27.32
2023-05-19T12:06:26.528Z,27.29
2023-05-19T12:07:26.624Z,27.27
2023-05-19T12:08:26.815Z,27.27
2023-05-19T12:09:26.960Z,27.29
2023-05-19T12:10:27.130Z,27.29
2023-05-19T12:11:27.321Z,27.27
2023-05-19T12:12:27.471Z,27.26
2023-05-19T12:13:27.626Z,27.25
2023-05-19T12:14:27.773Z,27.23
2023-05-19T12:15:27.959Z,27.23
2023-05-19T12:16:28.193Z,27.26
2023-05-19T12:17:28.307Z,27.23
2023-05-19T12:18:28.443Z,27.25
2023-05-19T12:19:28.679Z,27.30
2023-05-19T12:20:28.817Z,27.33
2023-05-19T12:21:33.956Z,27.37
2023-05-19T12:22:30.125Z,27.44
2023-05-19T12:23:29.310Z,27.49
2023-05-19T12:24:29.477Z,27.45
2023-05-19T12:25:29.653Z,27.42
2023-05-19T12:26:29.849Z,27.41
2023-05-19T12:27:29.990Z,27.32
2023-05-19T12:28:30.140Z,27.33
2023-05-19T12:29:30.333Z,27.32
2023-05-19T12:30:30.541Z,27.33
2023-05-19T12:31:30.682Z,27.36
2023-05-19T12:32:30.823Z,27.45
2023-05-19T12:33:31.715Z,27.45
2023-05-19T12:34:31.198Z,27.45
2023-05-19T12:35:31.303Z,27.45
2023-05-19T12:36:31.533Z,27.47
2023-05-19T12:37:31.675Z,27.48
2023-05-19T12:38:31.838Z,27.47
2023-05-19T12:39:32.044Z,27.45
2023-05-19T12:40:33.046Z,27.42
2023-05-19T12:41:32.397Z,27.41
2023-05-19T12:42:32.546Z,27.44
2023-05-19T12:43:32.757Z,27.45
2023-05-19T12:44:32.865Z,27.54
2023-05-19T12:45:33.081Z,27.54
2023-05-19T12:46:33.245Z,27.57
2023-05-19T12:47:33.401Z,27.57
2023-05-19T12:48:33.573Z,27.54
2023-05-19T12:49:33.742Z,27.52
2023-05-19T12:50:34.224Z,27.48
2023-05-19T12:51:34.094Z,27.54
2023-05-19T12:52:34.268Z,27.71
2023-05-19T12:53:34.428Z,27.81
2023-05-19T12:54:34.604Z,27.97